createdAt,value
2018-11-04T00:01:24.868Z,10.10
2018-11-04T00:02:59.795Z,10.10
2018-11-04T00:04:34.699Z,10.10
2018-11-04T00:06:09.651Z,10.10
2018-11-04T00:07:45.258Z,10.10
2018-11-04T00:09:20.221Z,10.10
2018-11-04T00:10:55.112Z,10.10
2018-11-04T00:12:30.036Z,10.10
2018-11-04T00:14:06.223Z,10.10
2018-11-04T00:15:41.134Z,10.10
2018-11-04T00:17:16.055Z,10.10
2018-11-04T00:18:51.135Z,10.10
2018-11-04T00:20:26.212Z,10.10
2018-11-04T00:22:01.220Z,10.10
2018-11-04T00:23:36.130Z,10.10
2018-11-04T00:25:12.666Z,10.10
2018-11-04T00:26:47.602Z,10.10
2018-11-04T00:28:22.504Z,10.10
2018-11-04T00:29:57.638Z,10.10
2018-11-04T00:31:32.733Z,10.10
2018-11-04T00:33:07.737Z,10.10
2018-11-04T00:34:42.770Z,10.10
2018-11-04T00:36:18.234Z,10.10
2018-11-04T00:37:53.172Z,10.10
2018-11-04T00:39:28.092Z,10.10
2018-11-04T00:41:02.959Z,10.10
2018-11-04T00:42:38.091Z,10.00
2018-11-04T00:44:12.987Z,10.00
2018-11-04T00:45:47.907Z,10.10
2018-11-04T00:47:22.819Z,10.10
2018-11-04T00:48:57.929Z,10.10
2018-11-04T00:50:32.833Z,10.10
2018-11-04T00:52:07.776Z,10.00
2018-11-04T00:53:42.700Z,10.10
2018-11-04T00:55:17.591Z,10.10
2018-11-04T00:56:52.604Z,10.10
2018-11-04T00:58:27.498Z,10.00
2018-11-04T01:00:02.391Z,10.10
2018-11-04T01:01:37.341Z,10.00
2018-11-04T01:03:12.231Z,10.00
2018-11-04T01:04:47.122Z,10.00
2018-11-04T01:06:22.012Z,10.00
2018-11-04T01:07:56.978Z,10.00
2018-11-04T01:09:32.154Z,10.00
2018-11-04T01:11:07.058Z,10.00
2018-11-04T01:12:42.745Z,10.00
2018-11-04T01:14:17.765Z,10.00
2018-11-04T01:15:52.649Z,10.00
2018-11-04T01:17:27.563Z,10.00
2018-11-04T01:19:02.635Z,10.00
2018-11-04T01:20:37.508Z,10.00
2018-11-04T01:22:12.408Z,10.00
2018-11-04T01:23:47.336Z,10.00
2018-11-04T01:25:22.318Z,10.00
2018-11-04T01:26:57.237Z,10.00
2018-11-04T01:28:32.154Z,10.00
2018-11-04T01:30:09.089Z,10.00
2018-11-04T01:31:43.968Z,10.00
2018-11-04T01:33:18.874Z,10.00
2018-11-04T01:34:55.976Z,10.00
2018-11-04T01:36:31.887Z,10.00
2018-11-04T01:38:09.267Z,10.00
2018-11-04T01:39:45.260Z,10.00
2018-11-04T01:41:20.390Z,10.00
2018-11-04T01:42:55.382Z,10.00
2018-11-04T01:44:30.291Z,10.00
2018-11-04T01:46:05.274Z,10.00
2018-11-04T01:47:40.448Z,10.00
2018-11-04T01:49:15.397Z,10.00
2018-11-04T01:50:50.321Z,10.00
2018-11-04T01:52:25.690Z,10.00
2018-11-04T01:54:00.684Z,10.00
2018-11-04T01:55:35.576Z,10.00
2018-11-04T01:57:10.470Z,10.00
2018-11-04T01:58:45.415Z,10.00
2018-11-04T02:00:20.339Z,10.00
2018-11-04T02:01:56.189Z,10.00
2018-11-04T02:03:31.115Z,10.00
2018-11-04T02:05:06.609Z,10.00
2018-11-04T02:06:41.524Z,10.00
2018-11-04T02:08:16.422Z,10.00
2018-11-04T02:09:51.328Z,10.00
2018-11-04T02:11:26.262Z,10.00
2018-11-04T02:13:01.167Z,10.00
2018-11-04T02:14:36.076Z,9.90
2018-11-04T02:16:11.038Z,10.00
2018-11-04T02:17:45.925Z,10.00
2018-11-04T02:19:20.896Z,9.90
2018-11-04T02:20:55.802Z,10.00
2018-11-04T02:22:30.714Z,10.00
2018-11-04T02:24:05.919Z,10.00
2018-11-04T02:25:40.881Z,9.90
2018-11-04T02:27:15.764Z,9.90
2018-11-04T02:28:50.783Z,10.00
2018-11-04T02:30:25.688Z,9.90
2018-11-04T02:32:00.617Z,9.90
2018-11-04T02:33:35.725Z,9.90
2018-11-04T02:35:10.694Z,9.90
2018-11-04T02:36:45.545Z,9.90
2018-11-04T02:38:20.430Z,9.90
2018-11-04T02:39:55.389Z,9.90
2018-11-04T02:41:30.435Z,9.90
2018-11-04T02:43:05.391Z,9.90
2018-11-04T02:44:40.305Z,9.90
2018-11-04T02:46:15.196Z,9.90
2018-11-04T02:47:50.068Z,9.90
2018-11-04T02:49:25.048Z,9.90
2018-11-04T02:50:59.938Z,9.90
2018-11-04T02:52:34.966Z,9.90
2018-11-04T02:54:09.859Z,9.90
2018-11-04T02:55:44.928Z,9.90
2018-11-04T02:57:19.901Z,9.90
2018-11-04T02:58:55.106Z,9.90
2018-11-04T03:00:29.981Z,9.90
2018-11-04T03:02:05.723Z,9.90
2018-11-04T03:03:40.771Z,9.90
2018-11-04T03:05:15.788Z,9.90
2018-11-04T03:06:50.692Z,9.90
2018-11-04T03:08:25.599Z,9.90
2018-11-04T03:10:00.509Z,9.90
2018-11-04T03:11:35.599Z,9.90
2018-11-04T03:13:10.640Z,9.90
2018-11-04T03:14:45.550Z,9.90
2018-11-04T03:16:20.444Z,9.90
2018-11-04T03:17:55.582Z,10.00
2018-11-04T03:19:32.225Z,9.90
2018-11-04T03:21:07.673Z,9.90
2018-11-04T03:22:42.605Z,9.90
2018-11-04T03:24:19.968Z,9.90
2018-11-04T03:25:54.895Z,9.90
2018-11-04T03:27:29.872Z,10.00
2018-11-04T03:29:04.822Z,10.00
2018-11-04T03:30:39.931Z,10.00
2018-11-04T03:32:14.936Z,10.00
2018-11-04T03:33:49.836Z,10.00
2018-11-04T03:35:24.852Z,10.00
2018-11-04T03:36:59.713Z,10.00
2018-11-04T03:38:34.718Z,10.00
2018-11-04T03:40:10.645Z,10.00
2018-11-04T03:41:45.587Z,10.00
2018-11-04T03:43:20.471Z,10.00
2018-11-04T03:44:55.397Z,10.00
2018-11-04T03:46:30.345Z,10.00
2018-11-04T03:48:05.507Z,10.00
2018-11-04T03:49:40.485Z,10.00
2018-11-04T03:51:15.418Z,10.00
2018-11-04T03:52:50.346Z,10.00
2018-11-04T03:54:25.278Z,10.00
2018-11-04T03:56:00.175Z,10.00
2018-11-04T03:57:35.926Z,10.00
2018-11-04T03:59:11.023Z,10.00
2018-11-04T04:00:46.528Z,10.00
2018-11-04T04:02:21.494Z,10.00
2018-11-04T04:03:56.407Z,10.00
2018-11-04T04:05:31.365Z,10.00
2018-11-04T04:07:06.275Z,10.00
2018-11-04T04:08:41.297Z,10.00
2018-11-04T04:10:16.279Z,10.00
2018-11-04T04:11:51.227Z,10.00
2018-11-04T04:13:26.150Z,10.00
2018-11-04T04:15:08.647Z,10.00
2018-11-04T04:16:43.565Z,10.00
2018-11-04T04:18:18.516Z,10.00
2018-11-04T04:19:53.412Z,10.00
2018-11-04T04:21:28.427Z,10.00
2018-11-04T04:23:03.312Z,10.00
2018-11-04T04:24:38.265Z,10.00
2018-11-04T04:26:13.162Z,10.00
2018-11-04T04:27:48.090Z,9.90
2018-11-04T04:29:22.983Z,10.00
2018-11-04T04:30:57.901Z,9.90
2018-11-04T04:32:32.805Z,10.00
2018-11-04T04:34:07.709Z,9.90
2018-11-04T04:35:42.642Z,10.00
2018-11-04T04:37:17.575Z,10.00
2018-11-04T04:38:52.471Z,10.00
2018-11-04T04:40:27.447Z,10.00
2018-11-04T04:42:02.388Z,10.00
2018-11-04T04:43:37.478Z,10.00
2018-11-04T04:45:12.401Z,10.00
2018-11-04T04:46:47.403Z,9.90
2018-11-04T04:48:22.329Z,10.00
2018-11-04T04:49:57.288Z,10.00
2018-11-04T04:51:32.222Z,10.00
2018-11-04T04:53:07.403Z,10.00
2018-11-04T04:54:42.383Z,9.90
2018-11-04T04:56:17.356Z,9.90
2018-11-04T04:57:52.294Z,9.90
2018-11-04T04:59:27.463Z,10.00
2018-11-04T05:01:02.407Z,9.90
2018-11-04T05:02:37.366Z,9.90
2018-11-04T05:04:12.317Z,10.00
2018-11-04T05:05:47.270Z,9.90
2018-11-04T05:07:22.261Z,9.90
2018-11-04T05:08:57.202Z,9.90
2018-11-04T05:10:32.179Z,10.00
2018-11-04T05:12:07.226Z,9.90
2018-11-04T05:13:42.247Z,10.00
2018-11-04T05:15:17.221Z,10.00
2018-11-04T05:16:52.460Z,9.90
2018-11-04T05:18:27.409Z,10.00
2018-11-04T05:20:02.363Z,10.00
2018-11-04T05:21:37.381Z,10.00
2018-11-04T05:23:12.411Z,10.00
2018-11-04T05:24:47.328Z,9.90
2018-11-04T05:26:22.318Z,9.90
2018-11-04T05:27:57.247Z,9.90
2018-11-04T05:29:32.135Z,9.90
2018-11-04T05:31:07.090Z,9.90
2018-11-04T05:32:42.118Z,9.90
2018-11-04T05:34:17.226Z,10.00
2018-11-04T05:35:52.276Z,10.00
2018-11-04T05:37:27.315Z,10.00
2018-11-04T05:39:02.220Z,10.00
2018-11-04T05:40:37.146Z,10.00
2018-11-04T05:42:12.123Z,10.00
2018-11-04T05:43:47.023Z,10.00
2018-11-04T05:45:21.969Z,10.00
2018-11-04T05:46:56.889Z,10.00
2018-11-04T05:48:31.890Z,10.00
2018-11-04T05:50:06.907Z,10.00
2018-11-04T05:51:41.850Z,9.90
2018-11-04T05:53:16.843Z,10.00
2018-11-04T05:54:51.781Z,10.00
2018-11-04T05:56:26.772Z,9.90
2018-11-04T05:58:01.754Z,10.00
2018-11-04T05:59:36.677Z,10.00
2018-11-04T06:01:11.672Z,10.00
2018-11-04T06:02:46.624Z,10.00
2018-11-04T06:04:21.512Z,10.00
2018-11-04T06:05:56.620Z,10.00
2018-11-04T06:07:31.566Z,10.00
2018-11-04T06:09:08.132Z,10.00
2018-11-04T06:10:43.073Z,10.00
2018-11-04T06:12:17.982Z,10.00
2018-11-04T06:13:53.110Z,10.00
2018-11-04T06:15:28.055Z,10.00
2018-11-04T06:17:03.232Z,10.00
2018-11-04T06:18:38.287Z,10.00
2018-11-04T06:20:13.658Z,10.00
2018-11-04T06:21:48.834Z,10.00
2018-11-04T06:23:23.750Z,10.00
2018-11-04T06:24:58.716Z,10.00
2018-11-04T06:26:33.644Z,10.00
2018-11-04T06:28:08.574Z,10.00
2018-11-04T06:29:43.529Z,9.90
2018-11-04T06:31:18.541Z,10.00
2018-11-04T06:32:53.481Z,10.00
2018-11-04T06:34:28.436Z,10.00
2018-11-04T06:36:03.433Z,10.00
2018-11-04T06:37:38.450Z,10.00
2018-11-04T06:39:13.526Z,10.00
2018-11-04T06:40:48.434Z,10.00
2018-11-04T06:42:23.457Z,10.00
2018-11-04T06:43:58.435Z,10.00
2018-11-04T06:45:33.414Z,10.00
2018-11-04T06:47:08.481Z,10.00
2018-11-04T06:48:43.356Z,10.00
2018-11-04T06:50:18.270Z,10.10
2018-11-04T06:51:53.351Z,10.00
2018-11-04T06:53:28.308Z,10.10
2018-11-04T06:55:03.377Z,10.00
2018-11-04T06:56:38.314Z,10.10
2018-11-04T06:58:13.273Z,10.10
2018-11-04T06:59:48.454Z,10.00
2018-11-04T07:01:23.415Z,10.10
2018-11-04T07:02:58.348Z,10.10
2018-11-04T07:04:33.289Z,10.10
2018-11-04T07:06:08.253Z,10.10
2018-11-04T07:07:43.214Z,10.10
2018-11-04T07:09:18.292Z,10.10
2018-11-04T07:10:53.283Z,10.10
2018-11-04T07:12:28.449Z,10.10
2018-11-04T07:14:03.630Z,10.10
2018-11-04T07:15:38.514Z,10.10
2018-11-04T07:17:13.558Z,10.10
2018-11-04T07:18:49.438Z,10.10
2018-11-04T07:20:24.755Z,10.10
2018-11-04T07:21:59.768Z,10.10
2018-11-04T07:23:34.723Z,10.10
2018-11-04T07:25:09.657Z,10.10
2018-11-04T07:26:44.605Z,10.10
2018-11-04T07:28:19.512Z,10.10
2018-11-04T07:29:54.432Z,10.10
2018-11-04T07:31:29.462Z,10.10
2018-11-04T07:33:04.434Z,10.10
2018-11-04T07:34:39.331Z,10.10
2018-11-04T07:36:14.253Z,10.20
2018-11-04T07:37:49.215Z,10.20
2018-11-04T07:39:24.225Z,10.20
2018-11-04T07:40:59.357Z,10.30
2018-11-04T07:42:34.332Z,10.30
2018-11-04T07:44:09.518Z,10.30
2018-11-04T07:45:44.470Z,10.40
2018-11-04T07:47:19.414Z,10.40
2018-11-04T07:48:54.302Z,10.50
2018-11-04T07:50:29.261Z,10.50
2018-11-04T07:52:04.081Z,10.50
2018-11-04T07:53:39.005Z,10.50
2018-11-04T07:55:13.878Z,10.50
2018-11-04T07:56:48.817Z,10.50
2018-11-04T07:58:23.702Z,10.50
2018-11-04T07:59:58.606Z,10.50
2018-11-04T08:01:33.494Z,10.50
2018-11-04T08:03:08.565Z,10.50
2018-11-04T08:04:43.443Z,10.50
2018-11-04T08:06:18.345Z,10.50
2018-11-04T08:07:53.341Z,10.40
2018-11-04T08:09:28.239Z,10.40
2018-11-04T08:11:03.558Z,10.40
2018-11-04T08:12:38.775Z,10.40
2018-11-04T08:14:13.687Z,10.40
2018-11-04T08:15:48.745Z,10.40
2018-11-04T08:17:25.757Z,10.40
2018-11-04T08:19:02.160Z,10.40
2018-11-04T08:22:18.271Z,10.40
2018-11-04T08:23:53.154Z,10.40
2018-11-04T08:25:28.337Z,10.40
2018-11-04T08:27:03.447Z,10.40
2018-11-04T08:28:38.399Z,10.40
2018-11-04T08:30:13.325Z,10.50
2018-11-04T08:31:48.261Z,10.50
2018-11-04T08:33:23.205Z,10.50
2018-11-04T08:34:58.273Z,10.60
2018-11-04T08:36:33.162Z,10.60
2018-11-04T08:38:08.178Z,10.60
2018-11-04T08:39:43.075Z,10.60
2018-11-04T08:41:18.062Z,10.60
2018-11-04T08:42:52.966Z,10.70
2018-11-04T08:44:27.854Z,10.70
2018-11-04T08:46:02.755Z,10.70
2018-11-04T08:47:44.470Z,10.70
2018-11-04T08:49:19.396Z,10.70
2018-11-04T08:50:54.308Z,10.70
2018-11-04T08:52:29.334Z,10.70
2018-11-04T08:54:04.211Z,10.70
2018-11-04T08:55:39.144Z,10.80
2018-11-04T08:57:14.214Z,10.80
2018-11-04T08:58:49.159Z,10.90
2018-11-04T09:00:24.034Z,10.90
2018-11-04T09:01:59.170Z,10.90
2018-11-04T09:03:34.116Z,10.90
2018-11-04T09:05:09.330Z,10.90
2018-11-04T09:06:44.242Z,10.90
2018-11-04T09:08:19.284Z,10.90
2018-11-04T09:09:54.215Z,10.90
2018-11-04T09:11:29.143Z,10.80
2018-11-04T09:13:04.082Z,10.80
2018-11-04T09:14:39.006Z,10.80
2018-11-04T09:16:13.886Z,10.80
2018-11-04T09:17:48.825Z,10.90
2018-11-04T09:19:23.785Z,10.90
2018-11-04T09:20:58.674Z,10.90
2018-11-04T09:22:33.630Z,11.00
2018-11-04T09:24:08.543Z,11.00
2018-11-04T09:25:43.443Z,11.00
2018-11-04T09:27:18.803Z,11.00
2018-11-04T09:28:53.898Z,10.90
2018-11-04T09:30:28.718Z,10.90
2018-11-04T09:32:03.855Z,10.90
2018-11-04T09:33:38.862Z,11.00
2018-11-04T09:35:14.120Z,11.00
2018-11-04T09:36:48.902Z,11.00
2018-11-04T09:38:23.895Z,11.00
2018-11-04T09:39:58.836Z,11.10
2018-11-04T09:41:33.793Z,11.10
2018-11-04T09:43:08.722Z,11.10
2018-11-04T09:44:43.696Z,11.10
2018-11-04T09:46:18.608Z,11.10
2018-11-04T09:47:53.474Z,11.10
2018-11-04T09:49:28.489Z,11.10
2018-11-04T09:51:03.410Z,11.10
2018-11-04T09:52:38.549Z,11.10
2018-11-04T09:54:13.786Z,11.10
2018-11-04T09:55:48.670Z,11.10
2018-11-04T09:57:23.712Z,11.20
2018-11-04T09:58:58.656Z,11.20
2018-11-04T10:00:33.527Z,11.30
2018-11-04T10:02:08.445Z,11.30
2018-11-04T10:03:50.118Z,11.40
2018-11-04T10:05:24.994Z,11.50
2018-11-04T10:06:59.962Z,11.60
2018-11-04T10:08:34.804Z,11.50
2018-11-04T10:10:11.565Z,11.60
2018-11-04T10:11:46.523Z,11.70
2018-11-04T10:13:21.498Z,11.70
2018-11-04T10:14:56.528Z,11.70
2018-11-04T10:16:31.486Z,11.70
2018-11-04T10:18:06.430Z,11.60
2018-11-04T10:19:41.408Z,11.70
2018-11-04T10:21:16.238Z,11.70
2018-11-04T10:22:51.339Z,11.80
2018-11-04T10:24:33.045Z,11.90
2018-11-04T10:26:07.977Z,11.90
2018-11-04T10:27:43.346Z,11.90
2018-11-04T10:29:18.255Z,12.00
2018-11-04T10:30:53.364Z,11.90
2018-11-04T10:32:28.300Z,11.90
2018-11-04T10:34:03.220Z,11.90
2018-11-04T10:35:38.124Z,12.00
2018-11-04T10:37:13.256Z,12.00
2018-11-04T10:38:48.030Z,12.10
2018-11-04T10:40:23.005Z,12.10
2018-11-04T10:41:57.879Z,12.10
2018-11-04T10:43:32.773Z,12.10
2018-11-04T10:45:08.675Z,12.20
2018-11-04T10:46:43.548Z,12.10
2018-11-04T10:48:18.444Z,12.20
2018-11-04T10:49:53.428Z,12.20
2018-11-04T10:51:28.340Z,12.10
2018-11-04T10:53:03.267Z,12.10
2018-11-04T10:54:38.208Z,12.10
2018-11-04T10:56:13.211Z,12.00
2018-11-04T10:57:48.195Z,12.00
2018-11-04T10:59:23.249Z,12.00
2018-11-04T11:01:03.610Z,12.00
2018-11-04T11:02:38.462Z,12.00
2018-11-04T11:04:13.711Z,11.90
2018-11-04T11:05:48.609Z,11.90
2018-11-04T11:07:23.495Z,11.90
2018-11-04T11:08:58.591Z,12.00
2018-11-04T11:10:33.535Z,11.90
2018-11-04T11:12:08.422Z,11.90
2018-11-04T11:13:43.312Z,11.90
2018-11-04T11:15:18.321Z,12.00
2018-11-04T11:16:53.191Z,12.00
2018-11-04T11:18:28.287Z,12.10
2018-11-04T11:20:03.245Z,12.10
2018-11-04T11:21:38.134Z,12.10
2018-11-04T11:23:13.131Z,12.20
2018-11-04T11:24:48.040Z,12.10
2018-11-04T11:26:22.934Z,12.10
2018-11-04T11:27:57.870Z,12.10
2018-11-04T11:29:32.850Z,12.00
2018-11-04T11:31:08.717Z,12.10
2018-11-04T11:32:43.608Z,12.00
2018-11-04T11:34:18.512Z,12.00
2018-11-04T11:35:53.470Z,12.00
2018-11-04T11:37:28.748Z,12.00
2018-11-04T11:39:03.800Z,12.00
2018-11-04T11:40:38.753Z,12.00
2018-11-04T11:42:13.721Z,12.10
2018-11-04T11:43:48.633Z,12.20
2018-11-04T11:45:23.810Z,12.20
2018-11-04T11:46:58.733Z,12.20
2018-11-04T11:48:33.809Z,12.30
2018-11-04T11:50:09.050Z,12.30
2018-11-04T11:51:43.965Z,12.30
2018-11-04T11:53:19.017Z,12.30
2018-11-04T11:54:54.005Z,12.30
2018-11-04T11:56:28.919Z,12.30
2018-11-04T11:58:03.777Z,12.30
2018-11-04T11:59:38.682Z,12.30
2018-11-04T12:01:13.699Z,12.30
2018-11-04T12:02:48.591Z,12.20
2018-11-04T12:04:23.527Z,12.20
2018-11-04T12:05:58.444Z,12.10
2018-11-04T12:07:33.570Z,12.10
2018-11-04T12:09:09.054Z,12.10
2018-11-04T12:10:44.011Z,12.10
2018-11-04T12:12:18.895Z,12.10
2018-11-04T12:13:53.829Z,12.00
2018-11-04T12:15:28.762Z,12.00
2018-11-04T12:17:03.695Z,12.00
2018-11-04T12:18:38.567Z,11.90
2018-11-04T12:20:14.143Z,11.90
2018-11-04T12:21:49.176Z,11.90
2018-11-04T12:23:24.131Z,11.90
2018-11-04T12:24:59.044Z,11.90
2018-11-04T12:26:33.922Z,11.90
2018-11-04T12:28:08.850Z,11.90
2018-11-04T12:29:43.754Z,11.90
2018-11-04T12:31:18.679Z,11.90
2018-11-04T12:32:53.563Z,11.90
2018-11-04T12:34:28.481Z,11.90
2018-11-04T12:36:03.360Z,12.00
2018-11-04T12:37:38.250Z,12.00
2018-11-04T12:39:13.424Z,12.00
2018-11-04T12:40:48.314Z,12.00
2018-11-04T12:42:23.565Z,12.00
2018-11-04T12:43:58.447Z,12.10
2018-11-04T12:45:33.448Z,12.10
2018-11-04T12:47:08.387Z,12.00
2018-11-04T12:48:43.303Z,12.00
2018-11-04T12:50:18.239Z,12.00
2018-11-04T12:51:53.181Z,11.90
2018-11-04T12:53:28.192Z,11.90
2018-11-04T12:55:03.114Z,11.90
2018-11-04T12:56:38.073Z,11.90
2018-11-04T12:58:12.983Z,11.80
2018-11-04T12:59:48.099Z,11.80
2018-11-04T13:01:23.229Z,11.70
2018-11-04T13:02:58.203Z,11.70
2018-11-04T13:04:33.114Z,11.60
2018-11-04T13:06:08.037Z,11.60
2018-11-04T13:07:42.938Z,11.60
2018-11-04T13:09:17.873Z,11.60
2018-11-04T13:10:52.794Z,11.60
2018-11-04T13:12:27.912Z,11.60
2018-11-04T13:14:02.836Z,11.60
2018-11-04T13:15:37.779Z,11.60
2018-11-04T13:17:12.695Z,11.60
2018-11-04T13:18:47.620Z,11.60
2018-11-04T13:20:22.532Z,11.60
2018-11-04T13:21:57.442Z,11.60
2018-11-04T13:23:32.353Z,11.60
2018-11-04T13:25:07.515Z,11.70
2018-11-04T13:26:42.442Z,11.70
2018-11-04T13:28:17.383Z,11.70
2018-11-04T13:29:52.697Z,11.80
2018-11-04T13:31:27.639Z,11.80
2018-11-04T13:33:02.991Z,11.90
2018-11-04T13:34:37.906Z,11.90
2018-11-04T13:36:12.869Z,12.00
2018-11-04T13:37:47.771Z,12.00
2018-11-04T13:39:22.774Z,12.00
2018-11-04T13:41:01.208Z,12.00
2018-11-04T13:42:36.290Z,12.00
2018-11-04T13:44:11.242Z,11.90
2018-11-04T13:45:46.126Z,11.90
2018-11-04T13:47:21.125Z,11.90
2018-11-04T13:48:56.031Z,11.90
2018-11-04T13:50:31.006Z,11.90
2018-11-04T13:52:05.957Z,11.90
2018-11-04T13:53:40.876Z,11.90
2018-11-04T13:55:15.886Z,11.90
2018-11-04T13:56:50.792Z,11.90
2018-11-04T13:58:25.997Z,11.90
2018-11-04T14:00:00.983Z,11.90
2018-11-04T14:01:35.896Z,11.90
2018-11-04T14:03:10.784Z,11.90
2018-11-04T14:04:45.859Z,11.90
2018-11-04T14:06:20.868Z,11.80
2018-11-04T14:07:55.810Z,11.80
2018-11-04T14:09:30.755Z,11.90
2018-11-04T14:11:06.023Z,11.90
2018-11-04T14:12:41.475Z,11.90
2018-11-04T14:14:16.395Z,12.00
2018-11-04T14:15:51.286Z,11.90
2018-11-04T14:17:26.237Z,12.00
2018-11-04T14:19:01.160Z,12.00
2018-11-04T14:20:36.116Z,11.90
2018-11-04T14:22:11.029Z,11.80
2018-11-04T14:23:46.126Z,11.80
2018-11-04T14:25:21.018Z,11.80
2018-11-04T14:26:56.147Z,11.80
2018-11-04T14:28:31.256Z,11.70
2018-11-04T14:30:08.632Z,11.70
2018-11-04T14:31:43.582Z,11.70
2018-11-04T14:33:18.492Z,11.70
2018-11-04T14:34:53.378Z,11.70
2018-11-04T14:36:28.283Z,11.70
2018-11-04T14:38:03.370Z,11.60
2018-11-04T14:39:38.288Z,11.60
2018-11-04T14:41:13.159Z,11.50
2018-11-04T14:42:54.733Z,11.50
2018-11-04T14:44:29.620Z,11.50
2018-11-04T14:46:04.584Z,11.50
2018-11-04T14:47:40.051Z,11.40
2018-11-04T14:49:14.942Z,11.40
2018-11-04T14:50:49.840Z,11.40
2018-11-04T14:52:24.766Z,11.30
2018-11-04T14:53:59.898Z,11.40
2018-11-04T14:55:34.860Z,11.30
2018-11-04T14:57:09.872Z,11.30
2018-11-04T14:58:44.907Z,11.30
2018-11-04T15:00:19.834Z,11.30
2018-11-04T15:01:54.799Z,11.20
2018-11-04T15:03:29.637Z,11.30
2018-11-04T15:05:05.016Z,11.20
2018-11-04T15:06:39.916Z,11.20
2018-11-04T15:08:14.842Z,11.20
2018-11-04T15:09:49.746Z,11.10
2018-11-04T15:11:24.744Z,11.10
2018-11-04T15:12:59.735Z,11.10
2018-11-04T15:14:34.657Z,11.10
2018-11-04T15:16:09.599Z,11.10
2018-11-04T15:17:44.527Z,11.10
2018-11-04T15:19:19.458Z,11.10
2018-11-04T15:20:54.338Z,11.00
2018-11-04T15:22:29.280Z,11.00
2018-11-04T15:24:04.179Z,11.00
2018-11-04T15:25:39.275Z,11.00
2018-11-04T15:27:14.167Z,11.00
2018-11-04T15:28:49.119Z,11.00
2018-11-04T15:30:24.009Z,11.00
2018-11-04T15:31:58.919Z,10.90
2018-11-04T15:33:33.822Z,10.90
2018-11-04T15:35:08.811Z,10.90
2018-11-04T15:36:43.872Z,10.90
2018-11-04T15:38:18.856Z,10.90
2018-11-04T15:39:54.043Z,10.80
2018-11-04T15:41:28.924Z,10.80
2018-11-04T15:43:03.965Z,10.80
2018-11-04T15:44:38.911Z,10.80
2018-11-04T15:46:14.006Z,10.80
2018-11-04T15:47:49.032Z,10.80
2018-11-04T15:49:23.984Z,10.80
2018-11-04T15:50:59.086Z,10.80
2018-11-04T15:52:33.999Z,10.70
2018-11-04T15:54:08.938Z,10.70
2018-11-04T15:55:43.823Z,10.70
2018-11-04T15:57:18.817Z,10.70
2018-11-04T15:58:54.704Z,10.70
2018-11-04T16:00:29.660Z,10.70
2018-11-04T16:02:05.003Z,10.70
2018-11-04T16:03:40.147Z,10.70
2018-11-04T16:05:15.064Z,10.70
2018-11-04T16:06:49.961Z,10.70
2018-11-04T16:08:24.883Z,10.70
2018-11-04T16:09:59.912Z,10.70
2018-11-04T16:11:34.825Z,10.70
2018-11-04T16:13:09.788Z,10.70
2018-11-04T16:14:44.755Z,10.70
2018-11-04T16:16:19.599Z,10.70
2018-11-04T16:17:54.564Z,10.60
2018-11-04T16:19:29.508Z,10.60
2018-11-04T16:21:04.507Z,10.60
2018-11-04T16:22:40.011Z,10.60
2018-11-04T16:24:14.974Z,10.60
2018-11-04T16:25:49.892Z,10.60
2018-11-04T16:27:25.288Z,10.60
2018-11-04T16:29:00.312Z,10.60
2018-11-04T16:30:35.247Z,10.60
2018-11-04T16:32:10.255Z,10.60
2018-11-04T16:33:45.239Z,10.60
2018-11-04T16:35:20.175Z,10.60
2018-11-04T16:36:55.084Z,10.60
2018-11-04T16:38:30.012Z,10.60
2018-11-04T16:40:04.959Z,10.60
2018-11-04T16:41:39.853Z,10.60
2018-11-04T16:43:14.770Z,10.60
2018-11-04T16:44:49.715Z,10.50
2018-11-04T16:46:24.605Z,10.50
2018-11-04T16:47:59.543Z,10.50
2018-11-04T16:49:34.495Z,10.50
2018-11-04T16:51:09.416Z,10.50
2018-11-04T16:52:44.929Z,10.50
2018-11-04T16:54:19.898Z,10.50
2018-11-04T16:55:54.904Z,10.60
2018-11-04T16:57:29.790Z,10.60
2018-11-04T16:59:05.223Z,10.60
2018-11-04T17:00:40.219Z,10.60
2018-11-04T17:02:15.184Z,10.60
2018-11-04T17:03:50.312Z,10.60
2018-11-04T17:05:25.389Z,10.60
2018-11-04T17:07:00.220Z,10.60
2018-11-04T17:08:35.139Z,10.60
2018-11-04T17:10:10.527Z,10.60
2018-11-04T17:11:45.477Z,10.50
2018-11-04T17:13:20.491Z,10.50
2018-11-04T17:14:55.503Z,10.50
2018-11-04T17:16:30.424Z,10.50
2018-11-04T17:18:05.597Z,10.50
2018-11-04T17:19:40.507Z,10.50
2018-11-04T17:21:15.459Z,10.50
2018-11-04T17:22:51.160Z,10.50
2018-11-04T17:24:26.076Z,10.50
2018-11-04T17:26:01.044Z,10.50
2018-11-04T17:27:35.997Z,10.50
2018-11-04T17:29:11.824Z,10.50
2018-11-04T17:30:46.761Z,10.50
2018-11-04T17:32:21.623Z,10.40
2018-11-04T17:33:56.619Z,10.50
2018-11-04T17:35:31.634Z,10.50
2018-11-04T17:37:07.499Z,10.50
2018-11-04T17:38:46.940Z,10.50
2018-11-04T17:40:22.242Z,10.50
2018-11-04T17:41:57.255Z,10.50
2018-11-04T17:43:32.268Z,10.50
2018-11-04T17:45:09.053Z,10.50
2018-11-04T17:46:44.204Z,10.50
2018-11-04T17:48:19.119Z,10.50
2018-11-04T17:49:54.151Z,10.50
2018-11-04T17:51:29.008Z,10.50
2018-11-04T17:53:03.904Z,10.50
2018-11-04T17:54:39.069Z,10.50
2018-11-04T17:56:14.040Z,10.50
2018-11-04T17:57:49.128Z,10.50
2018-11-04T17:59:24.226Z,10.50
2018-11-04T18:00:59.107Z,10.50
2018-11-04T18:02:34.192Z,10.40
2018-11-04T18:04:09.157Z,10.40
2018-11-04T18:05:44.160Z,10.50
2018-11-04T18:07:19.123Z,10.40
2018-11-04T18:08:54.138Z,10.40
2018-11-04T18:10:29.123Z,10.40
2018-11-04T18:12:04.271Z,10.50
2018-11-04T18:13:39.172Z,10.40
2018-11-04T18:15:14.880Z,10.50
2018-11-04T18:16:49.820Z,10.50
2018-11-04T18:18:24.727Z,10.40
2018-11-04T18:19:59.701Z,10.50
2018-11-04T18:21:34.892Z,10.50
2018-11-04T18:23:09.857Z,10.40
2018-11-04T18:24:45.651Z,10.50
2018-11-04T18:26:20.688Z,10.50
2018-11-04T18:27:55.635Z,10.50
2018-11-04T18:29:30.622Z,10.50
2018-11-04T18:31:05.764Z,10.40
2018-11-04T18:32:40.802Z,10.40
2018-11-04T18:34:16.499Z,10.50
2018-11-04T18:35:51.516Z,10.40
2018-11-04T18:37:26.363Z,10.40
2018-11-04T18:39:01.315Z,10.40
2018-11-04T18:40:36.205Z,10.40
2018-11-04T18:42:11.107Z,10.40
2018-11-04T18:43:46.349Z,10.40
2018-11-04T18:45:21.526Z,10.40
2018-11-04T18:46:56.441Z,10.40
2018-11-04T18:48:31.445Z,10.40
2018-11-04T18:50:07.227Z,10.40
2018-11-04T18:51:42.156Z,10.40
2018-11-04T18:53:17.050Z,10.40
2018-11-04T18:54:51.992Z,10.40
2018-11-04T18:56:26.944Z,10.40
2018-11-04T18:58:01.893Z,10.40
2018-11-04T18:59:36.925Z,10.40
2018-11-04T19:01:11.927Z,10.40
2018-11-04T19:02:47.553Z,10.40
2018-11-04T19:04:22.519Z,10.40
2018-11-04T19:05:59.308Z,10.40
2018-11-04T19:07:34.264Z,10.40
2018-11-04T19:09:09.914Z,10.50
2018-11-04T19:10:44.846Z,10.50
2018-11-04T19:12:19.739Z,10.50
2018-11-04T19:13:54.666Z,10.50
2018-11-04T19:15:29.626Z,10.40
2018-11-04T19:17:04.775Z,10.40
2018-11-04T19:18:39.773Z,10.50
2018-11-04T19:20:15.539Z,10.50
2018-11-04T19:21:50.506Z,10.50
2018-11-04T19:23:26.107Z,10.50
2018-11-04T19:25:01.059Z,10.50
2018-11-04T19:26:36.114Z,10.50
2018-11-04T19:28:11.041Z,10.50
2018-11-04T19:29:45.951Z,10.50
2018-11-04T19:31:21.044Z,10.50
2018-11-04T19:32:56.013Z,10.50
2018-11-04T19:34:31.107Z,10.50
2018-11-04T19:36:06.033Z,10.50
2018-11-04T19:37:41.340Z,10.50
2018-11-04T19:39:16.359Z,10.50
2018-11-04T19:40:51.301Z,10.50
2018-11-04T19:42:26.298Z,10.50
2018-11-04T19:44:01.187Z,10.50
2018-11-04T19:45:36.464Z,10.50
2018-11-04T19:47:11.323Z,10.50
2018-11-04T19:48:46.382Z,10.50
2018-11-04T19:50:21.256Z,10.50
2018-11-04T19:51:56.155Z,10.50
2018-11-04T19:53:31.253Z,10.50
2018-11-04T19:55:07.262Z,10.50
2018-11-04T19:56:42.301Z,10.50
2018-11-04T19:58:17.216Z,10.50
2018-11-04T19:59:52.182Z,10.50
2018-11-04T20:01:27.169Z,10.50
2018-11-04T20:03:02.150Z,10.50
2018-11-04T20:04:37.177Z,10.50
2018-11-04T20:06:13.285Z,10.50
2018-11-04T20:07:49.286Z,10.50
2018-11-04T20:09:24.225Z,10.50
2018-11-04T20:10:59.216Z,10.50
2018-11-04T20:12:39.422Z,10.50
2018-11-04T20:14:22.809Z,10.50
2018-11-04T20:15:59.073Z,10.50
2018-11-04T20:17:34.230Z,10.50
2018-11-04T20:19:15.530Z,10.50
2018-11-04T20:20:50.615Z,10.50
2018-11-04T20:22:25.557Z,10.50
2018-11-04T20:24:05.749Z,10.50
2018-11-04T20:25:46.494Z,10.50
2018-11-04T20:27:21.351Z,10.50
2018-11-04T20:28:56.701Z,10.50
2018-11-04T20:30:31.768Z,10.50